Time;durP1;ratioP1;P1;durP2;ratioP2;P2;SDS_P1;SDS_P2;PMS_P1;PMS_P2;Temp;Humidity;BMP_temperature;BMP_pressure;BME280_temperature;BME280_humidity;BME280_pressure;Samples;Min_cycle;Max_cycle;Signal;HPM_P1;HPM_P2
2022/07/29 00:01:06;;;;;;;2.08;0.60;;;;;;;16.57;87.80;101952.22;5071365;28;20159;-30
2022/07/29 00:03:46;;;;;;;2.63;0.70;;;;;;;16.53;88.02;101949.19;5071109;28;20057;-32
2022/07/29 00:06:14;;;;;;;2.60;0.80;;;;;;;16.53;88.24;101952.00;5071317;28;20068;-34
2022/07/29 00:08:43;;;;;;;2.47;0.80;;;;;;;16.53;88.28;101943.56;5070836;28;20049;-33
2022/07/29 00:11:11;;;;;;;2.05;0.80;;;;;;;16.51;88.38;101949.50;5071087;28;20118;-37
2022/07/29 00:13:40;;;;;;;3.28;0.80;;;;;;;16.52;88.51;101951.19;5071450;28;20047;-32
2022/07/29 00:16:08;;;;;;;1.98;0.85;;;;;;;16.51;88.42;101948.66;5070547;28;20417;-35
2022/07/29 00:18:36;;;;;;;2.25;0.70;;;;;;;16.52;88.50;101955.97;5071450;28;20055;-38
2022/07/29 00:21:04;;;;;;;1.65;0.57;;;;;;;16.49;89.10;101954.63;5071252;28;20551;-30
2022/07/29 00:23:32;;;;;;;2.70;0.70;;;;;;;16.51;89.11;101951.47;5070536;28;20072;-35
2022/07/29 00:26:04;;;;;;;2.65;0.85;;;;;;;16.49;89.10;101953.78;5071090;28;20097;-33
2022/07/29 00:28:32;;;;;;;2.50;0.73;;;;;;;16.49;89.58;101953.78;5071425;28;20048;-32
2022/07/29 00:31:00;;;;;;;2.25;0.70;;;;;;;16.48;89.24;101952.09;5070550;28;20044;-31
2022/07/29 00:33:29;;;;;;;1.88;0.70;;;;;;;16.47;89.42;101947.63;5071323;28;20461;-31
2022/07/29 00:35:56;;;;;;;1.95;0.65;;;;;;;16.46;89.31;101949.59;5071236;28;20125;-32
2022/07/29 00:38:24;;;;;;;2.55;0.70;;;;;;;16.45;89.71;101947.09;5070131;28;20560;-30
2022/07/29 00:40:52;;;;;;;1.55;0.63;;;;;;;16.43;89.67;101947.41;5071436;28;20492;-38
2022/07/29 00:43:21;;;;;;;2.83;0.80;;;;;;;16.42;89.64;101947.72;5071052;28;20048;-29
2022/07/29 00:45:49;;;;;;;1.52;0.70;;;;;;;16.39;89.75;101943.53;5070442;28;20045;-31
2022/07/29 00:48:17;;;;;;;3.80;0.73;;;;;;;16.38;89.96;101941.06;5071023;28;20076;-30
2022/07/29 00:50:45;;;;;;;3.95;1.02;;;;;;;16.35;90.17;101939.69;5074227;28;20618;-34
2022/07/29 00:53:13;;;;;;;1.80;0.90;;;;;;;16.34;90.34;101934.38;5073951;28;20454;-36
2022/07/29 00:55:41;;;;;;;3.10;0.70;;;;;;;16.32;90.52;101931.03;5075033;28;20430;-30
2022/07/29 00:58:09;;;;;;;2.35;0.90;;;;;;;16.28;90.82;101922.34;5073984;28;20131;-36
2022/07/29 01:00:40;;;;;;;3.20;0.80;;;;;;;16.28;91.07;101924.34;5074877;28;20091;-29
2022/07/29 01:03:08;;;;;;;3.22;0.82;;;;;;;16.27;91.13;101922.66;5074576;28;20440;-29
2022/07/29 01:05:36;;;;;;;2.60;0.80;;;;;;;16.24;91.34;101926.09;5073917;28;20135;-37
2022/07/29 01:08:19;;;;;;;2.83;1.17;;;;;;;16.20;91.38;101921.09;5074763;28;20052;-32
2022/07/29 01:10:48;;;;;;;2.75;0.73;;;;;;;16.19;91.46;101916.59;5074399;28;20132;-34
2022/07/29 01:13:17;;;;;;;2.50;0.70;;;;;;;16.19;91.56;101915.75;5073637;28;20131;-34
2022/07/29 01:15:51;;;;;;;2.15;0.65;;;;;;;16.18;91.47;101916.94;5074438;28;20095;-30
2022/07/29 01:18:24;;;;;;;4.05;0.90;;;;;;;16.16;91.57;101922.88;5074174;28;20056;-30
2022/07/29 01:21:14;;;;;;;1.60;0.60;;;;;;;16.17;91.55;101918.91;5073722;28;20486;-30
2022/07/29 01:24:00;;;;;;;2.95;0.90;;;;;;;16.16;91.50;101916.41;5074196;28;20075;-31
2022/07/29 01:26:45;;;;;;;3.03;1.10;;;;;;;16.18;91.25;101916.94;5073581;28;20044;-32
2022/07/29 01:29:20;;;;;;;2.17;0.88;;;;;;;16.17;91.09;101907.66;5074055;28;20485;-37
2022/07/29 01:31:53;;;;;;;2.33;0.80;;;;;;;16.16;91.38;101908.81;5074434;28;20041;-30
2022/07/29 01:34:40;;;;;;;2.25;0.80;;;;;;;16.18;91.81;101909.31;5073367;28;20059;-30
2022/07/29 01:37:16;;;;;;;2.72;0.90;;;;;;;16.20;91.89;101904.19;5074727;28;20139;-33
2022/07/29 01:39:46;;;;;;;2.03;0.90;;;;;;;16.22;92.26;101894.59;5074112;28;20044;-32
2022/07/29 01:42:21;;;;;;;2.10;0.73;;;;;;;16.22;92.22;101898.25;5073363;28;20506;-35
2022/07/29 01:44:56;;;;;;;1.77;0.88;;;;;;;16.23;92.35;101893.44;5073882;28;20139;-30
2022/07/29 01:47:29;;;;;;;3.05;0.95;;;;;;;16.23;92.32;101894.28;5073314;28;20453;-31
2022/07/29 01:50:00;;;;;;;2.42;0.70;;;;;;;16.23;92.49;101888.66;5073659;28;20048;-33
2022/07/29 01:52:34;;;;;;;2.63;0.90;;;;;;;16.25;92.54;101889.19;5073739;28;20049;-30
2022/07/29 01:55:08;;;;;;;3.10;0.90;;;;;;;16.26;92.53;101899.28;5073008;28;20051;-33
2022/07/29 01:57:39;;;;;;;2.70;1.00;;;;;;;16.28;92.46;101887.72;5073711;28;20164;-36
2022/07/29 02:00:10;;;;;;;2.00;0.85;;;;;;;16.30;92.58;101888.25;5073518;28;20494;-35
2022/07/29 02:02:45;;;;;;;2.53;0.70;;;;;;;16.30;92.80;101889.09;5072239;28;20052;-33
2022/07/29 02:05:16;;;;;;;2.73;0.90;;;;;;;16.31;92.92;101884.28;5073499;28;20052;-31
2022/07/29 02:07:47;;;;;;;1.70;0.73;;;;;;;16.32;92.81;101885.94;5073747;28;20052;-36
2022/07/29 02:10:17;;;;;;;2.67;0.88;;;;;;;16.32;93.15;101878.34;5072625;28;20052;-36
2022/07/29 02:12:47;;;;;;;4.18;0.88;;;;;;;16.34;93.44;101878.88;5073655;28;20048;-36
2022/07/29 02:15:19;;;;;;;;;;;;;;;16.30;93.51;101882.63;5073248;28;20094;-35
2022/07/29 02:17:57;;;;;;;1.80;0.60;;;;;;;16.30;93.79;101879.78;5073420;28;20373;-30
2022/07/29 02:20:26;;;;;;;3.28;0.80;;;;;;;16.32;93.57;101878.34;5071921;28;20466;-30
2022/07/29 02:22:56;;;;;;;2.83;0.90;;;;;;;16.33;93.71;101871.56;5072671;28;20059;-37
2022/07/29 02:25:25;;;;;;;1.95;0.70;;;;;;;16.35;93.97;101877.72;5073266;28;20037;-34
2022/07/29 02:28:06;;;;;;;2.50;0.95;;;;;;;16.35;94.21;101874.91;5073292;28;20102;-38
2022/07/29 02:30:40;;;;;;;2.63;0.90;;;;;;;16.38;94.50;101867.81;5072231;28;20076;-33
2022/07/29 02:33:09;;;;;;;2.72;0.82;;;;;;;16.37;95.02;101861.34;5072957;28;20048;-30
2022/07/29 02:35:39;;;;;;;1.98;0.90;;;;;;;16.38;95.43;101863.00;5073098;28;20072;-31
2022/07/29 02:40:56;;;;;;;2.03;0.85;;;;;;;16.35;96.14;101866.44;5072880;28;20040;-37
2022/07/29 02:43:25;;;;;;;2.50;1.00;;;;;;;16.36;96.47;101867.28;5062036;28;20516;-29
2022/07/29 02:45:57;;;;;;;2.20;0.88;;;;;;;16.36;97.17;101870.09;5072495;28;20040;-38
2022/07/29 02:48:33;;;;;;;1.70;0.90;;;;;;;16.35;97.07;101868.44;5072959;28;20052;-29
2022/07/29 02:51:07;;;;;;;3.25;1.30;;;;;;;16.33;97.31;101863.09;5071639;28;20048;-30
2022/07/29 02:53:39;;;;;;;3.55;0.88;;;;;;;16.33;97.55;101865.09;5072635;28;20679;-32
2022/07/29 02:56:11;;;;;;;3.95;1.00;;;;;;;16.32;97.93;101863.41;5072601;28;20127;-29
2022/07/29 02:58:41;;;;;;;2.22;0.75;;;;;;;16.31;98.09;101864.56;5071945;28;20050;-31
2022/07/29 03:01:15;;;;;;;3.60;1.20;;;;;;;16.30;98.33;101871.34;5072548;28;20072;-38
2022/07/29 03:03:50;;;;;;;4.05;1.10;;;;;;;16.29;98.98;101864.03;5072228;28;20055;-34
2022/07/29 03:06:18;;;;;;;2.50;0.90;;;;;;;16.29;98.94;101861.22;5070952;28;20055;-30
2022/07/29 03:09:06;;;;;;;2.30;0.77;;;;;;;16.28;99.10;101868.00;5071634;28;20049;-37
2022/07/29 03:11:41;;;;;;;1.98;0.70;;;;;;;16.28;99.47;101862.38;5071249;28;20059;-34
2022/07/29 03:14:19;;;;;;;2.72;1.00;;;;;;;16.25;99.69;101857.38;5072060;28;20045;-38
2022/07/29 03:16:50;;;;;;;2.42;1.00;;;;;;;16.24;99.41;101856.53;5071608;28;20494;-34
2022/07/29 03:19:19;;;;;;;2.25;0.90;;;;;;;16.21;99.54;101859.97;5071907;28;20036;-30
2022/07/29 03:21:48;;;;;;;3.33;0.85;;;;;;;16.22;99.53;101863.63;5071679;28;20052;-35
2022/07/29 03:24:26;;;;;;;2.47;1.00;;;;;;;16.23;99.55;101868.94;5067285;28;20041;-33
2022/07/29 03:26:56;;;;;;;2.25;0.85;;;;;;;16.22;99.65;101855.16;5069415;28;20053;-36
2022/07/29 03:29:26;;;;;;;4.18;0.82;;;;;;;16.20;99.96;101856.31;5066862;28;20131;-36
2022/07/29 03:32:03;;;;;;;2.95;1.10;;;;;;;16.21;100.00;101859.97;5070921;28;20052;-33
2022/07/29 03:34:36;;;;;;;4.85;1.02;;;;;;;16.19;100.00;101862.25;5066052;28;20088;-42
2022/07/29 03:37:07;;;;;;;3.58;0.95;;;;;;;16.19;100.00;101857.47;5070306;28;20068;-30
2022/07/29 03:39:40;;;;;;;3.47;0.90;;;;;;;16.19;100.00;101859.44;5070791;28;20051;-31
2022/07/29 03:42:11;;;;;;;3.58;1.02;;;;;;;16.19;100.00;101851.81;5072188;28;20106;-37
2022/07/29 03:44:42;;;;;;;2.65;1.05;;;;;;;16.20;100.00;101850.69;5071581;28;20151;-35
2022/07/29 03:47:14;;;;;;;2.15;1.00;;;;;;;16.18;100.00;101849.34;5071134;28;20480;-29
2022/07/29 03:49:45;;;;;;;2.20;1.00;;;;;;;16.18;100.00;101852.16;5070531;28;20140;-30
2022/07/29 03:52:13;;;;;;;2.85;1.20;;;;;;;16.18;100.00;101850.19;5071560;28;20128;-38
2022/07/29 03:54:41;;;;;;;4.28;1.10;;;;;;;16.18;100.00;101841.75;5070072;28;20143;-40
2022/07/29 03:57:12;;;;;;;5.25;1.67;;;;;;;16.18;100.00;101844.56;5071784;28;20146;-31
2022/07/29 03:59:40;;;;;;;3.03;1.02;;;;;;;16.17;100.00;101842.88;5071463;28;20059;-30
2022/07/29 04:02:12;;;;;;;3.35;0.90;;;;;;;16.17;100.00;101842.03;5070739;28;20048;-33
2022/07/29 04:04:42;;;;;;;4.03;1.10;;;;;;;16.17;100.00;101850.50;5071061;28;20410;-33
2022/07/29 04:07:12;;;;;;;3.35;1.10;;;;;;;16.18;100.00;101844.56;5071956;28;20490;-36
2022/07/29 04:09:40;;;;;;;3.78;1.10;;;;;;;16.18;100.00;101836.09;5070500;28;20501;-33
2022/07/29 04:12:09;;;;;;;2.13;1.00;;;;;;;16.20;100.00;101845.03;5071470;28;20406;-32
2022/07/29 04:14:37;;;;;;;4.10;1.20;;;;;;;16.19;100.00;101843.38;5071063;28;20500;-32
2022/07/29 04:17:05;;;;;;;2.55;1.00;;;;;;;16.21;100.00;101845.88;5070583;28;20057;-33
2022/07/29 04:19:35;;;;;;;2.33;1.08;;;;;;;16.23;99.97;101839.94;5071452;28;20054;-32
2022/07/29 04:22:02;;;;;;;3.85;1.10;;;;;;;16.25;99.94;101829.19;5070738;28;20052;-39
2022/07/29 04:24:30;;;;;;;2.25;0.90;;;;;;;16.27;99.94;101841.00;5072290;28;20046;-34
2022/07/29 04:26:58;;;;;;;3.03;1.00;;;;;;;16.29;99.95;101830.25;5075472;28;20044;-39
2022/07/29 04:29:26;;;;;;;2.70;1.08;;;;;;;16.30;99.95;101834.72;5074703;28;20107;-37
2022/07/29 04:31:53;;;;;;;3.45;1.20;;;;;;;16.33;100.00;101840.56;5075179;28;20801;-36
2022/07/29 04:34:21;;;;;;;2.15;0.90;;;;;;;16.35;99.99;101840.25;5075363;28;20056;-36
2022/07/29 04:36:56;;;;;;;2.58;1.10;;;;;;;16.37;99.84;101840.78;5075025;28;20040;-32
2022/07/29 04:39:23;;;;;;;4.60;1.58;;;;;;;16.38;99.55;101836.81;5074924;28;20507;-31
2022/07/29 04:41:54;;;;;;;2.20;0.95;;;;;;;16.40;99.37;101843.78;5075280;28;20049;-32
2022/07/29 04:44:23;;;;;;;2.40;0.90;;;;;;;16.43;99.05;101833.88;5074265;28;20056;-37
2022/07/29 04:46:55;;;;;;;;;;;;;;;16.41;99.05;101838.97;5074924;28;20482;-33
2022/07/29 04:49:24;;;;;;;3.80;0.95;;;;;;;16.41;99.25;101839.81;5075165;28;20440;-30
2022/07/29 04:51:52;;;;;;;2.80;0.90;;;;;;;16.47;98.70;101844.19;5074216;28;20049;-30
2022/07/29 04:54:21;;;;;;;3.67;0.90;;;;;;;16.52;98.45;101830.00;5075024;28;20048;-31
2022/07/29 04:56:48;;;;;;;3.08;1.10;;;;;;;16.56;98.39;101820.94;5074572;28;20391;-31
2022/07/29 04:59:16;;;;;;;3.13;1.02;;;;;;;16.60;98.10;101831.22;5074157;28;20493;-34
2022/07/29 05:01:44;;;;;;;2.83;1.10;;;;;;;16.62;97.85;101825.28;5074857;28;20060;-31
2022/07/29 05:04:12;;;;;;;4.32;1.00;;;;;;;16.65;97.53;101833.13;5074083;28;20194;-32
2022/07/29 05:06:40;;;;;;;2.38;1.00;;;;;;;16.66;97.31;101832.81;5073921;28;20048;-35
2022/07/29 05:09:08;;;;;;;2.45;0.90;;;;;;;16.69;97.05;101828.53;5074548;28;20075;-31
2022/07/29 05:11:37;;;;;;;3.65;1.10;;;;;;;16.72;96.82;101830.72;5073892;28;20382;-31
2022/07/29 05:14:05;;;;;;;6.88;1.10;;;;;;;16.73;96.73;101830.41;5074650;28;20056;-31
2022/07/29 05:16:33;;;;;;;8.00;1.52;;;;;;;16.77;96.18;101834.28;5074171;28;20047;-30
2022/07/29 05:19:01;;;;;;;4.28;1.10;;;;;;;16.80;95.72;101829.97;5073772;28;20058;-33
2022/07/29 05:21:29;;;;;;;4.43;1.10;;;;;;;16.84;95.34;101839.44;5074276;28;20040;-30
2022/07/29 05:23:56;;;;;;;3.85;0.90;;;;;;;16.86;94.96;101825.88;5074099;28;20051;-31
2022/07/29 05:26:24;;;;;;;3.55;0.82;;;;;;;16.93;94.99;101836.72;5073559;28;20041;-30
2022/07/29 05:28:54;;;;;;;3.90;1.20;;;;;;;16.96;94.81;101836.09;5063718;28;20062;-30
2022/07/29 05:31:22;;;;;;;4.57;1.10;;;;;;;17.00;94.55;101840.75;5074293;28;20048;-32
2022/07/29 05:33:50;;;;;;;2.80;0.77;;;;;;;17.04;94.38;101852.22;5073361;28;20498;-33
2022/07/29 05:36:18;;;;;;;3.63;0.88;;;;;;;17.08;94.29;101842.81;5072574;28;20051;-38
2022/07/29 05:38:45;;;;;;;2.95;0.90;;;;;;;17.14;94.39;101846.38;5070534;28;20067;-35
2022/07/29 05:41:13;;;;;;;2.45;1.00;;;;;;;17.19;94.77;101832.09;5073396;28;20059;-31
2022/07/29 05:43:41;;;;;;;2.70;0.90;;;;;;;17.23;94.74;101850.91;5073918;28;20044;-32
2022/07/29 05:46:10;;;;;;;3.20;1.10;;;;;;;17.28;94.85;101837.81;5074055;28;20084;-35
2022/07/29 05:48:38;;;;;;;3.97;1.00;;;;;;;17.31;94.61;101846.50;5072726;28;20562;-32
2022/07/29 05:51:06;;;;;;;3.40;0.93;;;;;;;17.33;94.50;101841.38;5073681;28;20079;-33
2022/07/29 05:53:34;;;;;;;3.88;1.02;;;;;;;17.39;94.44;101848.53;5073026;28;20059;-39
2022/07/29 05:56:04;;;;;;;4.20;0.98;;;;;;;17.42;94.24;101839.41;5073642;28;20054;-38
2022/07/29 05:58:31;;;;;;;2.78;0.90;;;;;;;17.44;93.82;101856.88;5073732;28;20054;-31
2022/07/29 06:01:00;;;;;;;5.97;1.02;;;;;;;17.46;93.45;101854.56;5072975;28;20048;-30
2022/07/29 06:03:30;;;;;;;2.88;0.90;;;;;;;17.51;93.34;101856.41;5073453;28;20086;-32
2022/07/29 06:05:57;;;;;;;3.35;1.10;;;;;;;17.51;93.12;101862.91;5073711;28;20044;-30
2022/07/29 06:08:25;;;;;;;4.38;1.10;;;;;;;17.53;93.08;101848.47;5072702;28;20464;-33
2022/07/29 06:10:53;;;;;;;3.20;1.10;;;;;;;17.53;92.94;101857.78;5073543;28;20136;-31
2022/07/29 06:13:21;;;;;;;3.38;0.93;;;;;;;17.53;92.89;101849.31;5073402;28;20044;-33
2022/07/29 06:15:49;;;;;;;4.30;1.25;;;;;;;17.54;92.87;101864.25;5072514;28;20063;-31
2022/07/29 06:18:17;;;;;;;4.18;1.10;;;;;;;17.53;92.73;101848.47;5073267;28;20055;-35
2022/07/29 06:20:46;;;;;;;3.35;0.90;;;;;;;17.53;92.62;101863.41;5073401;28;20053;-32
2022/07/29 06:23:14;;;;;;;3.67;0.85;;;;;;;17.52;92.64;101858.09;5072434;28;20079;-33
2022/07/29 06:25:41;;;;;;;3.17;1.00;;;;;;;17.52;92.67;101858.94;5072506;28;20389;-39
2022/07/29 06:28:09;;;;;;;6.22;1.08;;;;;;;17.54;92.66;101852.97;5071089;28;20123;-36
2022/07/29 06:30:37;;;;;;;4.38;1.00;;;;;;;17.60;93.00;101854.47;5071371;28;20124;-34
2022/07/29 06:33:05;;;;;;;2.55;0.90;;;;;;;17.67;92.76;101857.72;5073476;28;20051;-31
2022/07/29 06:35:34;;;;;;;2.80;1.00;;;;;;;17.79;92.01;101852.28;5070966;28;20051;-39
2022/07/29 06:38:11;;;;;;;3.00;1.00;;;;;;;17.94;91.18;101859.53;5073317;28;20054;-32
2022/07/29 06:41:02;;;;;;;2.88;1.00;;;;;;;18.22;90.49;101848.84;5070115;28;20102;-36
2022/07/29 06:43:33;;;;;;;2.50;0.90;;;;;;;18.53;89.28;101854.44;5071324;28;20114;-38
2022/07/29 06:46:02;;;;;;;3.13;0.80;;;;;;;18.85;88.08;101853.19;5068315;28;20382;-31
2022/07/29 06:48:31;;;;;;;6.75;1.08;;;;;;;19.22;87.35;101843.19;5072073;28;20730;-32
2022/07/29 06:50:59;;;;;;;3.75;0.82;;;;;;;19.71;85.83;101849.50;5071920;28;20075;-37
2022/07/29 06:53:30;;;;;;;2.75;0.73;;;;;;;20.24;82.90;101849.78;5072646;28;20113;-39
2022/07/29 06:55:59;;;;;;;3.47;0.80;;;;;;;20.67;81.02;101845.06;5071997;28;20052;-31
2022/07/29 06:58:27;;;;;;;3.15;0.75;;;;;;;21.06;79.07;101841.78;5072037;28;20135;-37
2022/07/29 07:00:58;;;;;;;2.42;0.80;;;;;;;21.39;76.33;101849.50;5071679;28;20045;-31
2022/07/29 07:03:26;;;;;;;2.45;0.80;;;;;;;21.75;75.31;101848.81;5072145;28;20055;-39
2022/07/29 07:05:55;;;;;;;4.20;1.00;;;;;;;22.11;71.31;101859.47;5070136;28;20051;-32
2022/07/29 07:08:24;;;;;;;2.70;0.80;;;;;;;22.32;69.80;101861.03;5071783;28;20041;-40
2022/07/29 07:10:54;;;;;;;2.17;0.77;;;;;;;22.49;67.40;101862.78;5071615;28;20052;-31
2022/07/29 07:13:22;;;;;;;4.65;1.17;;;;;;;22.62;66.68;101855.06;5072618;28;20139;-32
2022/07/29 07:15:51;;;;;;;3.60;0.98;;;;;;;22.93;66.46;101855.31;5071671;28;20051;-37
2022/07/29 07:18:20;;;;;;;4.35;0.98;;;;;;;23.46;65.00;101861.78;5071611;28;20048;-35
2022/07/29 07:20:48;;;;;;;3.03;0.90;;;;;;;23.96;62.59;101861.19;5072104;28;20052;-36
2022/07/29 07:23:16;;;;;;;2.65;0.80;;;;;;;24.32;60.36;101865.81;5072144;28;20037;-36
2022/07/29 07:25:44;;;;;;;2.85;0.90;;;;;;;24.59;59.46;101874.63;5069942;28;20136;-39
2022/07/29 07:28:14;;;;;;;5.38;0.90;;;;;;;24.78;57.58;101866.09;5071998;28;20053;-33
2022/07/29 07:30:41;;;;;;;2.30;0.80;;;;;;;25.05;56.43;101856.59;5071522;28;20388;-34
2022/07/29 07:33:09;;;;;;;3.00;1.00;;;;;;;25.35;55.40;101864.59;5071131;28;20139;-34
2022/07/29 07:35:37;;;;;;;2.15;0.95;;;;;;;25.70;55.09;101861.66;5071817;28;20071;-32
2022/07/29 07:38:05;;;;;;;6.28;1.13;;;;;;;26.17;52.43;101857.63;5071451;28;20049;-33
2022/07/29 07:40:33;;;;;;;3.78;0.90;;;;;;;26.52;51.86;101857.44;5069944;28;20059;-38
2022/07/29 07:43:01;;;;;;;2.45;0.65;;;;;;;26.85;50.57;101869.00;5071343;28;20049;-31
2022/07/29 07:45:32;;;;;;;4.15;1.35;;;;;;;26.98;48.71;101861.84;5071626;28;20050;-33
2022/07/29 07:48:00;;;;;;;1.83;0.80;;;;;;;27.07;47.67;101876.72;5071049;28;20043;-37
2022/07/29 07:50:28;;;;;;;2.78;0.90;;;;;;;27.17;47.85;101860.06;5071191;28;20052;-41
2022/07/29 07:52:57;;;;;;;2.25;0.77;;;;;;;27.42;46.86;101850.56;5070803;28;20052;-34
2022/07/29 07:55:26;;;;;;;3.05;0.98;;;;;;;27.41;45.57;101859.53;5071523;28;20040;-33
2022/07/29 07:57:54;;;;;;;2.70;0.90;;;;;;;27.38;45.76;101860.31;5070931;28;20141;-34
2022/07/29 08:04:11;;;;;;;3.90;0.80;;;;;;;28.05;45.08;101866.03;5068097;28;20058;-38
2022/07/29 08:06:39;;;;;;;3.75;0.90;;;;;;;28.05;44.09;101866.88;5071442;28;20056;-42
2022/07/29 08:09:07;;;;;;;2.70;0.88;;;;;;;28.18;44.36;101875.19;5071248;28;20080;-42
2022/07/29 08:11:56;;;;;;;2.00;0.80;;;;;;;28.41;43.70;101861.47;5070769;28;20044;-35
2022/07/29 08:14:24;;;;;;;5.55;0.93;;;;;;;28.64;41.90;101864.94;5060568;28;20040;-40
2022/07/29 08:16:52;;;;;;;2.53;0.70;;;;;;;28.80;41.75;101868.38;5070077;28;20032;-33
2022/07/29 08:19:21;;;;;;;2.70;0.90;;;;;;;28.93;41.10;101865.19;5071309;28;20052;-34
2022/07/29 08:21:52;;;;;;;2.40;0.77;;;;;;;29.07;41.09;101865.25;5071259;28;20076;-33
2022/07/29 08:27:06;;;;;;;5.07;1.02;;;;;;;29.29;39.56;101860.44;5071356;28;20052;-32
2022/07/29 08:29:55;;;;;;;2.22;0.85;;;;;;;29.07;39.79;101848.84;5060949;28;20049;-33
2022/07/29 08:32:23;;;;;;;3.00;0.90;;;;;;;29.04;40.17;101849.63;5070443;28;20135;-33
2022/07/29 08:35:12;;;;;;;3.03;0.80;;;;;;;29.14;39.21;101860.38;5061393;28;20497;-37
2022/07/29 08:37:40;;;;;;;2.03;0.80;;;;;;;29.42;39.47;101853.13;5070875;28;20040;-32
2022/07/29 08:40:08;;;;;;;3.53;1.00;;;;;;;29.93;38.38;101860.69;5071070;28;20040;-33
2022/07/29 08:42:36;;;;;;;2.85;0.93;;;;;;;30.31;37.68;101859.13;5070016;28;20048;-32
2022/07/29 08:45:05;;;;;;;2.05;0.80;;;;;;;30.58;37.04;101856.66;5070298;28;20052;-35
2022/07/29 08:47:35;;;;;;;1.90;0.60;;;;;;;30.81;36.48;101857.84;5070906;28;20139;-34
2022/07/29 08:50:04;;;;;;;3.25;1.00;;;;;;;31.00;36.03;101862.34;5070891;28;20060;-34
2022/07/29 08:52:36;;;;;;;3.50;1.00;;;;;;;31.12;35.26;101856.19;5070377;28;20425;-33
2022/07/29 08:55:06;;;;;;;2.83;0.90;;;;;;;31.18;35.31;101857.38;5070508;28;20052;-40
2022/07/29 08:57:35;;;;;;;2.88;0.90;;;;;;;31.43;35.29;101862.22;5070999;28;20138;-36
2022/07/29 09:00:08;;;;;;;4.10;0.70;;;;;;;31.52;34.45;101863.44;5069795;28;20045;-32
2022/07/29 09:02:42;;;;;;;2.60;0.80;;;;;;;31.33;34.02;101860.22;5071073;28;20102;-39
2022/07/29 09:05:13;;;;;;;3.58;0.90;;;;;;;31.40;34.79;101865.94;5070999;28;20044;-32
2022/07/29 09:07:43;;;;;;;2.22;0.80;;;;;;;31.36;34.41;101862.28;5070276;28;20044;-34
2022/07/29 09:10:11;;;;;;;2.65;0.80;;;;;;;31.18;34.64;101857.38;5071167;28;20086;-33
2022/07/29 09:12:39;;;;;;;3.08;0.90;;;;;;;31.31;34.56;101854.88;5074329;28;20067;-35
2022/07/29 09:15:08;;;;;;;2.55;0.90;;;;;;;31.37;34.06;101850.31;5073932;28;20052;-35
2022/07/29 09:17:43;;;;;;;2.03;0.80;;;;;;;31.29;32.72;101865.19;5074569;28;20072;-39
2022/07/29 09:20:12;;;;;;;3.22;0.80;;;;;;;31.20;34.96;101856.13;5073475;28;20083;-32
2022/07/29 09:22:42;;;;;;;3.20;1.35;;;;;;;31.15;33.95;101860.28;5073258;28;20143;-33
2022/07/29 09:25:12;;;;;;;2.72;1.00;;;;;;;31.15;34.10;101854.53;5074722;28;20079;-40
2022/07/29 09:27:40;;;;;;;2.17;0.90;;;;;;;31.21;34.30;101854.91;5073686;28;20055;-41
2022/07/29 09:30:11;;;;;;;2.17;0.90;;;;;;;31.51;34.30;101849.41;5074193;28;20045;-37
2022/07/29 09:32:53;;;;;;;;;;;;;;;31.62;32.72;101844.41;5074678;28;20051;-33
2022/07/29 09:35:23;;;;;;;3.80;0.80;;;;;;;31.56;34.28;101849.00;5073302;28;19924;-38
2022/07/29 09:37:53;;;;;;;2.67;1.00;;;;;;;31.53;33.57;101858.47;5074295;28;20056;-38
2022/07/29 09:40:22;;;;;;;2.78;0.85;;;;;;;31.32;34.18;101849.94;5073983;28;20048;-34
2022/07/29 09:42:52;;;;;;;3.83;1.25;;;;;;;31.29;34.26;101848.69;5073279;28;20048;-33
2022/07/29 09:45:31;;;;;;;2.45;1.00;;;;;;;31.24;32.99;101849.13;5073826;28;20036;-34
2022/07/29 09:48:03;;;;;;;2.83;0.90;;;;;;;30.96;34.01;101855.78;5073588;28;20064;-32
2022/07/29 09:50:38;;;;;;;3.15;0.93;;;;;;;30.78;34.25;101847.16;5073774;28;20053;-33
2022/07/29 09:53:09;;;;;;;4.13;1.00;;;;;;;30.62;35.19;101849.66;5073712;28;20513;-35
2022/07/29 09:55:48;;;;;;;3.75;0.98;;;;;;;30.88;35.13;101848.38;5072828;28;20040;-34
2022/07/29 09:58:17;;;;;;;3.25;1.00;;;;;;;31.07;35.34;101853.69;5073596;28;20494;-37
2022/07/29 10:00:45;;;;;;;2.35;0.82;;;;;;;31.36;35.50;101850.75;5072575;28;20408;-36
2022/07/29 10:03:14;;;;;;;3.28;0.88;;;;;;;31.74;34.88;101851.81;5072936;28;20051;-35
2022/07/29 10:05:44;;;;;;;3.20;0.82;;;;;;;32.03;34.98;101855.31;5073503;28;20048;-33
2022/07/29 10:08:14;;;;;;;3.90;0.90;;;;;;;32.27;34.65;101859.28;5062143;28;20572;-34
2022/07/29 10:10:43;;;;;;;3.67;0.93;;;;;;;32.19;33.84;101841.97;5072628;28;20040;-38
2022/07/29 10:13:12;;;;;;;3.83;1.10;;;;;;;31.74;34.54;101843.97;5073574;28;20051;-37
2022/07/29 10:15:45;;;;;;;5.45;1.30;;;;;;;31.47;35.47;101848.59;5073431;28;20056;-34
2022/07/29 10:18:16;;;;;;;;;;;;;;;31.28;35.23;101843.34;5073332;28;20266;-38
2022/07/29 10:20:44;;;;;;;2.33;0.70;;;;;;;31.28;36.77;101844.16;5073361;28;19920;-39
2022/07/29 10:23:14;;;;;;;4.68;1.40;;;;;;;31.47;35.96;101845.72;5067157;28;20049;-33
2022/07/29 10:25:42;;;;;;;5.25;1.15;;;;;;;31.49;36.05;101837.47;5073288;28;20055;-40
2022/07/29 10:28:13;;;;;;;4.93;1.10;;;;;;;31.39;35.99;101844.94;5073100;28;20037;-40
2022/07/29 10:30:45;;;;;;;3.63;1.17;;;;;;;31.25;35.88;101844.16;5072731;28;20475;-33
2022/07/29 10:33:30;;;;;;;4.10;1.13;;;;;;;31.05;36.40;101847.50;5072916;28;20048;-33
2022/07/29 10:36:11;;;;;;;3.45;0.95;;;;;;;31.11;36.66;101845.06;5072977;28;20147;-36
2022/07/29 10:38:52;;;;;;;2.90;1.00;;;;;;;31.27;35.73;101845.41;5071806;28;20090;-34
2022/07/29 10:41:42;;;;;;;3.72;1.15;;;;;;;31.13;35.21;101845.47;5072996;28;20049;-34
2022/07/29 10:44:16;;;;;;;3.55;0.88;;;;;;;30.94;36.68;101838.06;5071317;28;20095;-41
2022/07/29 10:46:50;;;;;;;4.07;1.38;;;;;;;30.84;36.85;101836.03;5072708;28;20049;-37
2022/07/29 10:49:20;;;;;;;4.53;1.40;;;;;;;30.65;36.79;101837.31;5072918;28;20436;-34
2022/07/29 10:51:56;;;;;;;3.40;0.90;;;;;;;30.46;37.13;101835.66;5072052;28;20049;-33
2022/07/29 10:54:44;;;;;;;3.72;1.10;;;;;;;30.53;36.76;101834.84;5072603;28;20113;-33
2022/07/29 10:57:28;;;;;;;2.92;0.90;;;;;;;30.50;36.48;101836.47;5072750;28;20044;-35
2022/07/29 11:00:30;;;;;;;5.03;1.05;;;;;;;30.45;36.62;101839.75;5064053;28;20044;-37
2022/07/29 11:02:58;;;;;;;2.78;0.95;;;;;;;30.47;37.29;101830.72;5072339;28;20072;-43
2022/07/29 11:05:29;;;;;;;3.40;1.08;;;;;;;30.27;38.16;101830.31;5071960;28;20044;-33
2022/07/29 11:08:25;;;;;;;3.53;1.10;;;;;;;30.12;38.98;101834.41;5072476;28;20057;-32
2022/07/29 11:11:40;;;;;;;5.60;1.05;;;;;;;30.09;39.22;101833.19;5072427;28;20147;-31
2022/07/29 11:14:19;;;;;;;4.38;1.00;;;;;;;30.10;38.93;101834.00;5071345;28;20513;-36
2022/07/29 11:17:05;;;;;;;2.10;0.80;;;;;;;30.03;39.10;101825.34;5052562;28;20045;-31
2022/07/29 11:19:36;;;;;;;4.82;1.02;;;;;;;30.01;39.00;101830.69;5068736;28;20106;-40
2022/07/29 11:22:09;;;;;;;3.35;0.82;;;;;;;29.81;39.33;101838.84;5072362;28;20136;-31
2022/07/29 11:24:38;;;;;;;4.65;0.90;;;;;;;29.63;39.71;101835.13;5072099;28;20075;-35
2022/07/29 11:27:19;;;;;;;4.13;1.13;;;;;;;29.67;39.90;101839.66;5051000;28;20053;-34
2022/07/29 11:29:54;;;;;;;3.83;1.00;;;;;;;29.81;39.33;101838.84;5058044;28;20488;-35
2022/07/29 11:32:24;;;;;;;4.75;0.90;;;;;;;29.87;39.58;101837.22;5066057;28;20105;-32
2022/07/29 11:35:13;;;;;;;3.05;0.90;;;;;;;29.80;38.80;101832.28;5071141;28;20469;-38
2022/07/29 11:37:45;;;;;;;3.55;1.10;;;;;;;29.57;39.77;101837.59;5052068;28;20409;-32
2022/07/29 11:40:22;;;;;;;3.72;0.90;;;;;;;29.44;40.23;101836.28;5069656;28;20068;-36
2022/07/29 11:42:53;;;;;;;2.83;0.93;;;;;;;29.54;40.33;101841.28;5071549;28;20068;-35
2022/07/29 11:45:28;;;;;;;3.08;0.90;;;;;;;29.50;40.36;101840.44;5069612;28;20525;-40
2022/07/29 11:48:20;;;;;;;4.50;1.23;;;;;;;29.43;40.82;101840.41;5071142;28;20098;-45
2022/07/29 11:50:59;;;;;;;2.80;0.73;;;;;;;29.38;40.68;101840.75;5071639;28;20056;-39
2022/07/29 11:53:27;;;;;;;3.50;0.88;;;;;;;29.29;40.69;101843.19;5071809;28;20102;-41
2022/07/29 11:56:00;;;;;;;4.38;1.30;;;;;;;28.99;40.92;101850.00;5070825;28;20044;-31